ADDS METAR Data INFO
IDs: Format: Raw Decoded Include TAF

Data at: 0437 UTC 22 Sep 2017

KLZZ 220415Z AUTO 00000KT 10SM CLR 24/22 A2994 RMK AO2 T02420217
KLZZ 220355Z AUTO 13003KT 10SM CLR 25/22 A2994 RMK AO2 T02500220
KLZZ 220335Z AUTO 13003KT 10SM CLR 26/23 A2993 RMK AO2 T02560225
KLZZ 220315Z AUTO 13005KT 10SM CLR 26/22 A2992 RMK AO2 T02560221
KLZZ 220255Z AUTO 15004KT 10SM CLR 26/22 A2992 RMK AO2 LTG DSNT SE T02560218
KLZZ 220235Z AUTO 17005KT 10SM CLR 26/22 A2992 RMK AO2 T02580220
KLZZ 220215Z AUTO 15008KT 10SM CLR 27/23 A2992 RMK AO2 T02700227
KLZZ 220155Z AUTO 16007KT 10SM CLR 27/23 A2992 RMK AO2 T02700225
KLZZ 220135Z AUTO 15008G14KT 10SM CLR 27/22 A2991 RMK AO2 T02700219
KLZZ 220115Z AUTO 16012G17KT 10SM CLR 27/22 A2990 RMK AO2 T02730220
KLZZ 220055Z AUTO 15010G14KT 10SM CLR 28/22 A2989 RMK AO2 T02800223
KLZZ 220035Z AUTO 14015G20KT 10SM SCT060 SCT070 29/23 A2989 RMK AO2 T02930225
KLZZ 220015Z AUTO 16010G15KT 10SM SCT060 33/22 A2988 RMK AO2 T03260222
KLZZ 212355Z AUTO 15008KT 10SM CLR 33/21 A2987 RMK AO2 T03260211 10355 20326
KLZZ 212335Z AUTO 15010G14KT 10SM CLR 33/20 A2987 RMK AO2 T03260200
KLZZ 212315Z AUTO 14012G18KT 10SM CLR 34/20 A2986 RMK AO2 T03350204
KLZZ 212255Z AUTO 14013G16KT 10SM SCT060 SCT075 35/21 A2986 RMK AO2 T03480209
KLZZ 212235Z AUTO 15008KT 10SM SCT060 SCT075 36/21 A2986 RMK AO2 T03550205
KLZZ 212215Z AUTO 13011KT 10SM SCT060 SCT075 36/21 A2986 RMK AO2 T03550211
KLZZ 212155Z AUTO 12010G16KT 10SM SCT065 SCT075 SCT090 36/21 A2986 RMK AO2 T03550214
KLZZ 212135Z AUTO 16007KT 10SM SCT075 34/20 A2987 RMK AO2 T03430204
KLZZ 212115Z AUTO 14011G15KT 10SM SCT060 36/20 A2987 RMK AO2 T03550204
KLZZ 212055Z AUTO 17008KT 10SM SCT060 36/21 A2987 RMK AO2 LTG DSNT E T03550208
KLZZ 212035Z AUTO 16010G15KT 10SM CLR 36/21 A2989 RMK AO2 T03550210
KLZZ 212015Z AUTO 15010KT 130V190 10SM CLR 36/22 A2989 RMK AO2 LTG DSNT SE T03550216
KLZZ 211955Z AUTO 17007G15KT 10SM SCT055 35/22 A2989 RMK AO2 T03530217
KLZZ 211935Z AUTO 16008KT 10SM SCT055 35/22 A2991 RMK AO2 T03520220
KLZZ 211915Z AUTO 17007KT 10SM SCT049 33/21 A2991 RMK AO2 T03310214
KLZZ 211855Z AUTO 17009G14KT 10SM SCT049 33/22 A2992 RMK AO2 T03340216
KLZZ 211835Z AUTO 18007G14KT 10SM SCT046 SCT049 33/22 A2994 RMK AO2 T03310218
KLZZ 211815Z AUTO 16009G14KT 10SM BKN044 BKN049 33/22 A2994 RMK AO2 T03260218
KLZZ 211755Z AUTO 19006KT 10SM BKN042 BKN049 33/23 A2996 RMK AO2 T03260232 10326 20256
KLZZ 211735Z AUTO 18010KT 10SM BKN040 33/23 A2996 RMK AO2 T03260228
KLZZ 211715Z AUTO 20010G15KT 10SM CLR 33/23 A2997 RMK AO2 T03260234
KLZZ 211655Z AUTO 16011G15KT 10SM SCT031 33/24 A2997 RMK AO2 T03250237
KLZZ 211635Z AUTO 17010G16KT 150V210 10SM SCT031 32/23 A2997 RMK AO2 T03150233
KLZZ 211615Z AUTO 18008G15KT 10SM SCT029 31/24 A2997 RMK AO2 T03110239
KLZZ 211315Z AUTO 18006KT 10SM OVC026 26/24 A2996 RMK AO2 T02560235
KLZZ 211255Z AUTO 17006KT 10SM OVC026 26/24 A2996 RMK AO2 T02560235
KLZZ 211235Z AUTO 17004KT 10SM OVC026 26/24 A2995 RMK AO2 T02560235
KLZZ 211215Z AUTO 18004KT 10SM OVC024 26/24 A2995 RMK AO2 T02560235
KLZZ 211155Z AUTO 19005KT 10SM OVC022 26/24 A2994 RMK AO2 T02560235 10270 20242
KLZZ 211135Z AUTO 18003KT 10SM OVC022 25/23 A2994 RMK AO2 T02500232
KLZZ 211115Z AUTO 00000KT 10SM SCT016 OVC020 24/23 A2993 RMK AO2 T02420226
KLZZ 211055Z AUTO 18003KT 10SM OVC018 24/23 A2992 RMK AO2 T02420226
KLZZ 211035Z AUTO 17003KT 10SM SCT014 BKN020 24/23 A2992 RMK AO2 T02420226
KLZZ 211015Z AUTO 17003KT 10SM SCT015 SCT020 24/23 A2992 RMK AO2 T02420227
KLZZ 210955Z AUTO 16003KT 10SM CLR 24/23 A2992 RMK AO2 T02420225
KLZZ 210935Z AUTO 17005KT 10SM CLR 24/23 A2992 RMK AO2 T02420225
KLZZ 210915Z AUTO 18005KT 10SM CLR 24/23 A2993 RMK AO2 T02440225
KLZZ 210855Z AUTO 18005KT 10SM SCT018 25/23 A2993 RMK AO2 T02500228
KLZZ 210835Z AUTO 19005KT 10SM OVC018 26/23 A2994 RMK AO2 T02560233
KLZZ 210815Z AUTO 19006KT 10SM BKN018 26/23 A2994 RMK AO2 T02560233
KLZZ 210755Z AUTO 18007KT 10SM CLR 26/23 A2994 RMK AO2 T02560233
KLZZ 210735Z AUTO 18006KT 10SM CLR 26/23 A2994 RMK AO2 T02560231
KLZZ 210615Z AUTO 15006KT 10SM CLR 27/24 A2993 RMK AO2 T02700235
KLZZ 210555Z AUTO 16005KT 10SM CLR 27/23 A2992 RMK AO2 T02700232 10326 20270 403600242
KLZZ 210535Z AUTO 16007KT 10SM CLR 27/23 A2992 RMK AO2 T02700230
KLZZ 210515Z AUTO 16007KT 10SM CLR 27/23 A2992 RMK AO2 T02700227
KLZZ 210455Z AUTO 17007KT 10SM CLR 27/23 A2992 RMK AO2 T02700225
KLZZ 210435Z AUTO 17006KT 10SM CLR 28/23 A2992 RMK AO2 T02770227
KLZZ 210415Z AUTO 15006KT 10SM CLR 28/22 A2992 RMK AO2 T02770224
KLZZ 210355Z AUTO 16006KT 10SM CLR 28/22 A2991 RMK AO2 T02810223
KLZZ 210335Z AUTO 15005KT 10SM CLR 29/22 A2991 RMK AO2 T02850223
KLZZ 210315Z AUTO 15006KT 10SM CLR 29/22 A2991 RMK AO2 T02850220
KLZZ 210255Z AUTO 16006KT 10SM CLR 29/22 A2990 RMK AO2 T02860220
KLZZ 210235Z AUTO 15005KT 10SM CLR 29/22 A2989 RMK AO2 T02890220
KLZZ 210215Z AUTO 15006KT 10SM CLR 29/22 A2989 RMK AO2 T02920219
KLZZ 210155Z AUTO 15006KT 10SM CLR 30/22 A2988 RMK AO2 T02960220
KLZZ 210135Z AUTO 14008KT 10SM CLR 31/23 A2987 RMK AO2 T03050225
KLZZ 210115Z AUTO 15010G15KT 10SM CLR 31/23 A2986 RMK AO2 T03120230
KLZZ 210055Z AUTO 15011KT 10SM CLR 31/23 A2986 RMK AO2 T03130228
KLZZ 210035Z AUTO 16007KT 10SM CLR 33/23 A2986 RMK AO2 T03260234
KLZZ 210015Z AUTO 16009G14KT 10SM CLR 33/23 A2986 RMK AO2 T03260228
KLZZ 202355Z AUTO 17009KT 10SM CLR 33/22 A2985 RMK AO2 T03260220 10360 20326
KLZZ 202335Z AUTO 17010G17KT 10SM CLR 34/22 A2984 RMK AO2 T03400223
KLZZ 202315Z AUTO 17012G16KT 10SM CLR 36/23 A2984 RMK AO2 T03550233
KLZZ 202255Z AUTO 17008G17KT 10SM CLR 36/23 A2983 RMK AO2 T03550225
KLZZ 202235Z AUTO 16009KT 10SM CLR 36/22 A2983 RMK AO2 T03550216
KLZZ 202215Z AUTO 17010G14KT 10SM CLR 36/21 A2983 RMK AO2 T03550213
KLZZ 202055Z AUTO 20012G15KT 160V220 10SM CLR 36/22 A2984 RMK AO2 T03550215
KLZZ 201935Z AUTO 19011G16KT 10SM CLR 36/22 A2987 RMK AO2 T03550218
KLZZ 201815Z AUTO 21010G16KT 10SM CLR 34/22 A2990 RMK AO2 T03390223
KLZZ 201755Z AUTO 19013KT 10SM CLR 33/22 A2991 RMK AO2 T03260219 10327 20242
KLZZ 201735Z AUTO 18009G17KT 150V210 10SM CLR 33/22 A2991 RMK AO2 T03260224
KLZZ 201715Z AUTO 20008G15KT 10SM CLR 33/23 A2992 RMK AO2 T03260230
KLZZ 201655Z AUTO 18010G18KT 10SM CLR 33/24 A2992 RMK AO2 T03260237